sensor_id;sensor_type;location;lat;lon;timestamp;pressure;altitude;pressure_sealevel;temperature;humidity
61528;BME280;47395;42.032;-8.634;2023-02-19T00:01:15;102027.66;;;13.30;53.28
61528;BME280;47395;42.032;-8.634;2023-02-19T00:03:16;102036.38;;;13.32;54.03
61528;BME280;47395;42.032;-8.634;2023-02-19T00:05:17;102039.84;;;13.35;54.07
61528;BME280;47395;42.032;-8.634;2023-02-19T00:07:18;102030.53;;;13.24;53.32
61528;BME280;47395;42.032;-8.634;2023-02-19T00:09:19;102033.16;;;13.24;53.79
61528;BME280;47395;42.032;-8.634;2023-02-19T00:11:23;102034.66;;;13.31;54.00
61528;BME280;47395;42.032;-8.634;2023-02-19T00:13:24;102035.34;;;13.37;54.54
61528;BME280;47395;42.032;-8.634;2023-02-19T00:15:25;102028.16;;;13.40;54.33
61528;BME280;47395;42.032;-8.634;2023-02-19T00:17:26;102029.66;;;13.48;54.11
61528;BME280;47395;42.032;-8.634;2023-02-19T00:19:27;102018.94;;;13.51;53.46
61528;BME280;47395;42.032;-8.634;2023-02-19T00:21:28;102021.28;;;13.58;52.73
61528;BME280;47395;42.032;-8.634;2023-02-19T00:23:29;102026.25;;;13.66;53.26
61528;BME280;47395;42.032;-8.634;2023-02-19T00:25:30;102027.63;;;13.77;52.80
61528;BME280;47395;42.032;-8.634;2023-02-19T00:27:31;102024.03;;;13.78;53.29
61528;BME280;47395;42.032;-8.634;2023-02-19T00:29:32;102020.34;;;13.82;52.82
61528;BME280;47395;42.032;-8.634;2023-02-19T00:31:34;102019.16;;;13.89;52.32
61528;BME280;47395;42.032;-8.634;2023-02-19T00:33:35;102015.75;;;13.86;53.44
61528;BME280;47395;42.032;-8.634;2023-02-19T00:35:36;102016.63;;;13.86;53.01
61528;BME280;47395;42.032;-8.634;2023-02-19T00:37:37;102012.28;;;13.85;54.01
61528;BME280;47395;42.032;-8.634;2023-02-19T00:39:38;102005.16;;;13.86;53.91
61528;BME280;47395;42.032;-8.634;2023-02-19T00:41:38;102001.06;;;13.78;53.33
61528;BME280;47395;42.032;-8.634;2023-02-19T00:43:39;102000.00;;;13.82;54.26
61528;BME280;47395;42.032;-8.634;2023-02-19T00:45:40;101996.16;;;13.69;54.53
61528;BME280;47395;42.032;-8.634;2023-02-19T00:47:41;102003.84;;;13.75;53.90
61528;BME280;47395;42.032;-8.634;2023-02-19T00:49:42;102004.72;;;13.76;53.75
61528;BME280;47395;42.032;-8.634;2023-02-19T00:51:43;102002.25;;;13.71;53.79
61528;BME280;47395;42.032;-8.634;2023-02-19T00:53:44;102005.13;;;13.42;53.65
61528;BME280;47395;42.032;-8.634;2023-02-19T00:55:45;102001.69;;;13.40;54.47
61528;BME280;47395;42.032;-8.634;2023-02-19T00:57:46;101999.38;;;13.55;54.72
61528;BME280;47395;42.032;-8.634;2023-02-19T00:59:46;101998.31;;;13.59;53.71
61528;BME280;47395;42.032;-8.634;2023-02-19T01:01:48;101995.53;;;13.40;53.22
61528;BME280;47395;42.032;-8.634;2023-02-19T01:03:49;101994.78;;;13.36;53.40
61528;BME280;47395;42.032;-8.634;2023-02-19T01:05:51;101999.34;;;13.32;54.17
61528;BME280;47395;42.032;-8.634;2023-02-19T01:07:52;101988.38;;;13.19;53.57
61528;BME280;47395;42.032;-8.634;2023-02-19T01:09:53;101985.78;;;13.18;54.50
61528;BME280;47395;42.032;-8.634;2023-02-19T01:11:54;101987.09;;;13.30;54.75
61528;BME280;47395;42.032;-8.634;2023-02-19T01:13:57;101989.00;;;13.26;54.11
61528;BME280;47395;42.032;-8.634;2023-02-19T01:16:15;101995.03;;;13.30;55.75
61528;BME280;47395;42.032;-8.634;2023-02-19T01:18:17;101994.25;;;13.28;54.79
61528;BME280;47395;42.032;-8.634;2023-02-19T01:20:18;101992.13;;;13.14;54.62
61528;BME280;47395;42.032;-8.634;2023-02-19T01:22:19;101988.25;;;13.00;55.74
61528;BME280;47395;42.032;-8.634;2023-02-19T01:24:19;101990.63;;;13.06;55.17
61528;BME280;47395;42.032;-8.634;2023-02-19T01:26:24;101990.72;;;13.05;55.59
61528;BME280;47395;42.032;-8.634;2023-02-19T01:28:25;101981.75;;;13.09;55.53
61528;BME280;47395;42.032;-8.634;2023-02-19T01:30:26;101977.25;;;13.11;55.76
61528;BME280;47395;42.032;-8.634;2023-02-19T01:32:27;101985.19;;;13.11;56.47
61528;BME280;47395;42.032;-8.634;2023-02-19T01:34:28;101978.13;;;13.12;56.05
61528;BME280;47395;42.032;-8.634;2023-02-19T01:36:33;101977.19;;;13.13;55.98
61528;BME280;47395;42.032;-8.634;2023-02-19T01:38:33;101981.75;;;13.09;55.92
61528;BME280;47395;42.032;-8.634;2023-02-19T01:40:34;101978.28;;;13.07;55.93
61528;BME280;47395;42.032;-8.634;2023-02-19T01:42:35;101980.94;;;13.07;55.66
61528;BME280;47395;42.032;-8.634;2023-02-19T01:45:17;101987.16;;;13.06;55.35
61528;BME280;47395;42.032;-8.634;2023-02-19T01:47:20;101972.00;;;13.10;55.17
61528;BME280;47395;42.032;-8.634;2023-02-19T01:49:26;101969.31;;;13.11;54.33
61528;BME280;47395;42.032;-8.634;2023-02-19T01:51:29;101964.81;;;13.13;54.32
61528;BME280;47395;42.032;-8.634;2023-02-19T01:53:37;101970.13;;;13.13;54.22
61528;BME280;47395;42.032;-8.634;2023-02-19T01:55:39;101968.44;;;13.11;54.68
61528;BME280;47395;42.032;-8.634;2023-02-19T01:57:45;101958.84;;;13.08;54.90
61528;BME280;47395;42.032;-8.634;2023-02-19T01:59:53;101963.34;;;13.06;55.08
61528;BME280;47395;42.032;-8.634;2023-02-19T02:01:57;101959.03;;;13.03;54.65
61528;BME280;47395;42.032;-8.634;2023-02-19T02:03:59;101965.34;;;12.99;54.35
61528;BME280;47395;42.032;-8.634;2023-02-19T02:06:10;101963.69;;;12.97;54.45
61528;BME280;47395;42.032;-8.634;2023-02-19T02:08:14;101971.84;;;12.90;54.50
61528;BME280;47395;42.032;-8.634;2023-02-19T02:10:34;101963.19;;;12.87;54.37
61528;BME280;47395;42.032;-8.634;2023-02-19T02:12:36;101968.53;;;12.85;54.58
61528;BME280;47395;42.032;-8.634;2023-02-19T02:14:40;101966.13;;;12.79;55.25
61528;BME280;47395;42.032;-8.634;2023-02-19T02:17:24;101967.13;;;12.76;55.77
61528;BME280;47395;42.032;-8.634;2023-02-19T02:20:10;101968.19;;;12.71;56.65
61528;BME280;47395;42.032;-8.634;2023-02-19T02:23:39;101964.69;;;12.70;56.94
61528;BME280;47395;42.032;-8.634;2023-02-19T02:26:31;101969.75;;;12.76;55.69
61528;BME280;47395;42.032;-8.634;2023-02-19T02:28:21;101967.38;;;12.69;55.38
61528;BME280;47395;42.032;-8.634;2023-02-19T02:30:41;101954.06;;;12.72;55.69
61528;BME280;47395;42.032;-8.634;2023-02-19T02:32:53;101956.75;;;12.70;55.12
61528;BME280;47395;42.032;-8.634;2023-02-19T02:35:10;101950.97;;;12.60;54.18
61528;BME280;47395;42.032;-8.634;2023-02-19T02:37:14;101953.00;;;12.53;54.02
61528;BME280;47395;42.032;-8.634;2023-02-19T02:39:19;101947.28;;;12.64;54.76
61528;BME280;47395;42.032;-8.634;2023-02-19T02:41:22;101949.41;;;12.78;53.97
61528;BME280;47395;42.032;-8.634;2023-02-19T02:43:23;101944.84;;;12.82;52.23
61528;BME280;47395;42.032;-8.634;2023-02-19T02:45:28;101946.28;;;12.91;53.96
61528;BME280;47395;42.032;-8.634;2023-02-19T02:47:48;101944.97;;;13.01;52.18
61528;BME280;47395;42.032;-8.634;2023-02-19T02:49:50;101944.63;;;13.11;54.11
61528;BME280;47395;42.032;-8.634;2023-02-19T02:52:05;101942.47;;;13.21;51.23
61528;BME280;47395;42.032;-8.634;2023-02-19T02:54:29;101939.81;;;13.21;51.09
61528;BME280;47395;42.032;-8.634;2023-02-19T02:56:50;101947.66;;;13.24;50.50
61528;BME280;47395;42.032;-8.634;2023-02-19T02:58:55;101934.31;;;13.27;51.62
61528;BME280;47395;42.032;-8.634;2023-02-19T03:01:10;101928.06;;;13.28;51.50
61528;BME280;47395;42.032;-8.634;2023-02-19T03:03:31;101927.25;;;13.26;52.53
61528;BME280;47395;42.032;-8.634;2023-02-19T03:05:32;101927.56;;;13.18;52.40
61528;BME280;47395;42.032;-8.634;2023-02-19T03:08:36;101935.28;;;13.02;53.07
61528;BME280;47395;42.032;-8.634;2023-02-19T03:10:43;101929.47;;;12.92;53.37
61528;BME280;47395;42.032;-8.634;2023-02-19T03:12:49;101931.75;;;12.79;53.70
61528;BME280;47395;42.032;-8.634;2023-02-19T03:15:10;101923.38;;;12.68;55.30
61528;BME280;47395;42.032;-8.634;2023-02-19T03:17:40;101926.16;;;12.64;55.99
61528;BME280;47395;42.032;-8.634;2023-02-19T03:20:04;101921.53;;;12.70;55.99
61528;BME280;47395;42.032;-8.634;2023-02-19T03:22:16;101928.69;;;12.66;55.42
61528;BME280;47395;42.032;-8.634;2023-02-19T03:24:27;101927.28;;;12.57;55.40
61528;BME280;47395;42.032;-8.634;2023-02-19T03:26:48;101927.00;;;12.41;56.37
61528;BME280;47395;42.032;-8.634;2023-02-19T03:28:55;101920.56;;;12.48;56.72
61528;BME280;47395;42.032;-8.634;2023-02-19T03:31:20;101921.47;;;12.47;56.87
61528;BME280;47395;42.032;-8.634;2023-02-19T03:33:26;101928.38;;;12.51;56.55
61528;BME280;47395;42.032;-8.634;2023-02-19T03:35:35;101922.09;;;12.54;56.98
61528;BME280;47395;42.032;-8.634;2023-02-19T03:38:24;101922.75;;;12.37;56.22
61528;BME280;47395;42.032;-8.634;2023-02-19T03:40:07;101910.03;;;12.23;56.76
61528;BME280;47395;42.032;-8.634;2023-02-19T03:42:35;101921.53;;;12.22;56.86
61528;BME280;47395;42.032;-8.634;2023-02-19T03:45:22;101920.06;;;12.13;57.38
61528;BME280;47395;42.032;-8.634;2023-02-19T03:47:32;101912.44;;;12.04;57.58
61528;BME280;47395;42.032;-8.634;2023-02-19T03:54:34;101914.88;;;11.84;58.08
61528;BME280;47395;42.032;-8.634;2023-02-19T03:56:46;101916.34;;;11.68;57.76
61528;BME280;47395;42.032;-8.634;2023-02-19T03:58:57;101904.69;;;11.73;57.99
61528;BME280;47395;42.032;-8.634;2023-02-19T04:01:25;101905.78;;;11.68;57.68
61528;BME280;47395;42.032;-8.634;2023-02-19T04:03:40;101900.28;;;11.74;57.88
61528;BME280;47395;42.032;-8.634;2023-02-19T04:05:48;101908.06;;;11.79;57.92
61528;BME280;47395;42.032;-8.634;2023-02-19T04:07:54;101901.56;;;11.87;58.25
61528;BME280;47395;42.032;-8.634;2023-02-19T04:10:03;101913.56;;;11.98;58.11
61528;BME280;47395;42.032;-8.634;2023-02-19T04:12:06;101900.50;;;11.93;57.95
61528;BME280;47395;42.032;-8.634;2023-02-19T04:14:12;101901.38;;;11.94;57.88
61528;BME280;47395;42.032;-8.634;2023-02-19T04:16:25;101901.47;;;11.91;57.99
61528;BME280;47395;42.032;-8.634;2023-02-19T04:18:31;101902.50;;;11.86;58.88
61528;BME280;47395;42.032;-8.634;2023-02-19T04:20:41;101892.97;;;11.82;59.53
61528;BME280;47395;42.032;-8.634;2023-02-19T04:22:42;101889.25;;;11.88;58.67
61528;BME280;47395;42.032;-8.634;2023-02-19T04:24:49;101894.19;;;11.97;58.51
61528;BME280;47395;42.032;-8.634;2023-02-19T04:26:51;101896.25;;;11.89;57.89
61528;BME280;47395;42.032;-8.634;2023-02-19T04:28:53;101896.25;;;11.89;58.25
61528;BME280;47395;42.032;-8.634;2023-02-19T04:30:53;101888.44;;;11.86;58.33
61528;BME280;47395;42.032;-8.634;2023-02-19T04:32:54;101895.59;;;11.82;58.81
61528;BME280;47395;42.032;-8.634;2023-02-19T04:34:55;101896.78;;;11.73;59.01
61528;BME280;47395;42.032;-8.634;2023-02-19T04:36:56;101896.03;;;11.70;58.93
61528;BME280;47395;42.032;-8.634;2023-02-19T04:38:57;101906.69;;;11.67;59.16
61528;BME280;47395;42.032;-8.634;2023-02-19T04:40:58;101897.97;;;11.65;60.21
61528;BME280;47395;42.032;-8.634;2023-02-19T04:42:59;101906.94;;;11.59;59.61
61528;BME280;47395;42.032;-8.634;2023-02-19T04:44:59;101898.53;;;11.74;60.39
61528;BME280;47395;42.032;-8.634;2023-02-19T04:47:00;101897.28;;;11.85;59.97
61528;BME280;47395;42.032;-8.634;2023-02-19T04:49:01;101898.88;;;11.89;59.78
61528;BME280;47395;42.032;-8.634;2023-02-19T04:51:05;101904.97;;;11.91;59.19
61528;BME280;47395;42.032;-8.634;2023-02-19T04:53:07;101904.91;;;11.93;58.47
61528;BME280;47395;42.032;-8.634;2023-02-19T04:55:08;101903.44;;;11.85;58.79
61528;BME280;47395;42.032;-8.634;2023-02-19T04:57:09;101904.31;;;11.84;58.75
61528;BME280;47395;42.032;-8.634;2023-02-19T04:59:09;101899.53;;;11.70;59.11
61528;BME280;47395;42.032;-8.634;2023-02-19T05:01:10;101900.56;;;11.66;59.70
61528;BME280;47395;42.032;-8.634;2023-02-19T05:03:11;101897.78;;;11.44;59.68
61528;BME280;47395;42.032;-8.634;2023-02-19T05:05:12;101896.72;;;11.49;60.17
61528;BME280;47395;42.032;-8.634;2023-02-19T05:07:13;101893.31;;;11.46;60.03
61528;BME280;47395;42.032;-8.634;2023-02-19T05:09:15;101896.09;;;11.41;60.23
61528;BME280;47395;42.032;-8.634;2023-02-19T05:11:15;101899.94;;;11.32;60.82
61528;BME280;47395;42.032;-8.634;2023-02-19T05:13:16;101900.84;;;11.31;60.61
61528;BME280;47395;42.032;-8.634;2023-02-19T05:15:17;101897.44;;;11.28;60.71
61528;BME280;47395;42.032;-8.634;2023-02-19T05:17:18;101895.66;;;11.28;60.80
61528;BME280;47395;42.032;-8.634;2023-02-19T05:19:19;101905.72;;;11.15;61.20
61528;BME280;47395;42.032;-8.634;2023-02-19T05:21:20;101903.06;;;11.17;61.21
61528;BME280;47395;42.032;-8.634;2023-02-19T05:23:21;101907.34;;;11.19;60.72
61528;BME280;47395;42.032;-8.634;2023-02-19T05:25:22;101907.31;;;11.21;61.01
61528;BME280;47395;42.032;-8.634;2023-02-19T05:27:22;101916.16;;;11.20;61.16
61528;BME280;47395;42.032;-8.634;2023-02-19T05:29:23;101913.81;;;11.10;61.22
61528;BME280;47395;42.032;-8.634;2023-02-19T05:31:24;101916.53;;;11.07;61.07
61528;BME280;47395;42.032;-8.634;2023-02-19T05:33:25;101923.75;;;11.02;61.57
61528;BME280;47395;42.032;-8.634;2023-02-19T05:35:26;101916.75;;;11.01;61.85
61528;BME280;47395;42.032;-8.634;2023-02-19T05:37:27;101918.59;;;10.97;62.17
61528;BME280;47395;42.032;-8.634;2023-02-19T05:39:28;101916.03;;;10.96;61.92
61528;BME280;47395;42.032;-8.634;2023-02-19T05:41:29;101913.56;;;10.90;61.71
61528;BME280;47395;42.032;-8.634;2023-02-19T05:43:30;101917.16;;;10.87;61.89
61528;BME280;47395;42.032;-8.634;2023-02-19T05:45:31;101919.94;;;10.82;62.33
61528;BME280;47395;42.032;-8.634;2023-02-19T05:47:32;101920.03;;;10.79;62.17
61528;BME280;47395;42.032;-8.634;2023-02-19T05:49:33;101914.56;;;10.86;62.29
61528;BME280;47395;42.032;-8.634;2023-02-19T05:51:34;101913.91;;;10.79;61.76
61528;BME280;47395;42.032;-8.634;2023-02-19T05:53:34;101913.75;;;10.83;62.15
61528;BME280;47395;42.032;-8.634;2023-02-19T05:55:36;101913.81;;;10.82;61.95
61528;BME280;47395;42.032;-8.634;2023-02-19T05:57:44;101921.84;;;10.77;62.44
61528;BME280;47395;42.032;-8.634;2023-02-19T05:59:46;101915.81;;;10.74;62.49
61528;BME280;47395;42.032;-8.634;2023-02-19T06:01:48;101921.31;;;10.66;62.81
61528;BME280;47395;42.032;-8.634;2023-02-19T06:03:49;101918.88;;;10.58;62.92
61528;BME280;47395;42.032;-8.634;2023-02-19T06:05:50;101913.78;;;10.53;62.97
61528;BME280;47395;42.032;-8.634;2023-02-19T06:07:51;101917.41;;;10.49;62.83
61528;BME280;47395;42.032;-8.634;2023-02-19T06:09:52;101919.38;;;10.41;63.26
61528;BME280;47395;42.032;-8.634;2023-02-19T06:11:52;101916.81;;;10.38;63.08
61528;BME280;47395;42.032;-8.634;2023-02-19T06:13:53;101921.22;;;10.37;63.26
61528;BME280;47395;42.032;-8.634;2023-02-19T06:15:54;101915.13;;;10.35;63.16
61528;BME280;47395;42.032;-8.634;2023-02-19T06:17:55;101921.38;;;10.31;63.18
61528;BME280;47395;42.032;-8.634;2023-02-19T06:19:56;101913.59;;;10.28;63.41
61528;BME280;47395;42.032;-8.634;2023-02-19T06:21:57;101917.00;;;10.31;63.50
61528;BME280;47395;42.032;-8.634;2023-02-19T06:23:58;101909.13;;;10.30;63.56
61528;BME280;47395;42.032;-8.634;2023-02-19T06:26:05;101908.19;;;10.32;63.38
61528;BME280;47395;42.032;-8.634;2023-02-19T06:28:06;101907.38;;;10.30;63.40
61528;BME280;47395;42.032;-8.634;2023-02-19T06:30:10;101905.69;;;10.28;63.18
61528;BME280;47395;42.032;-8.634;2023-02-19T06:32:11;101910.28;;;10.21;63.83
61528;BME280;47395;42.032;-8.634;2023-02-19T06:34:12;101905.88;;;10.20;63.81
61528;BME280;47395;42.032;-8.634;2023-02-19T06:36:18;101913.91;;;10.17;64.22
61528;BME280;47395;42.032;-8.634;2023-02-19T06:38:22;101913.03;;;10.16;64.23
61528;BME280;47395;42.032;-8.634;2023-02-19T06:40:23;101918.31;;;10.15;64.59
61528;BME280;47395;42.032;-8.634;2023-02-19T06:42:23;101923.59;;;10.15;64.66
61528;BME280;47395;42.032;-8.634;2023-02-19T06:44:24;101919.97;;;10.19;64.65
61528;BME280;47395;42.032;-8.634;2023-02-19T06:46:25;101919.91;;;10.22;64.29
61528;BME280;47395;42.032;-8.634;2023-02-19T06:48:27;101918.25;;;10.18;64.30
61528;BME280;47395;42.032;-8.634;2023-02-19T06:50:28;101924.13;;;10.28;64.48
61528;BME280;47395;42.032;-8.634;2023-02-19T06:52:29;101914.13;;;10.39;63.84
61528;BME280;47395;42.032;-8.634;2023-02-19T06:54:30;101917.41;;;10.49;63.87
61528;BME280;47395;42.032;-8.634;2023-02-19T06:56:34;101916.34;;;10.56;63.49
61528;BME280;47395;42.032;-8.634;2023-02-19T06:58:36;101917.13;;;10.58;63.33
61528;BME280;47395;42.032;-8.634;2023-02-19T07:00:37;101910.97;;;10.58;62.97
61528;BME280;47395;42.032;-8.634;2023-02-19T07:02:38;101914.66;;;10.54;63.01
61528;BME280;47395;42.032;-8.634;2023-02-19T07:04:39;101912.94;;;10.51;63.61
61528;BME280;47395;42.032;-8.634;2023-02-19T07:06:40;101914.69;;;10.52;62.19
61528;BME280;47395;42.032;-8.634;2023-02-19T07:08:41;101916.69;;;10.44;61.80
61528;BME280;47395;42.032;-8.634;2023-02-19T07:10:45;101918.22;;;10.51;62.39
61528;BME280;47395;42.032;-8.634;2023-02-19T07:12:46;101906.81;;;10.51;62.08
61528;BME280;47395;42.032;-8.634;2023-02-19T07:14:47;101914.72;;;10.51;62.17
61528;BME280;47395;42.032;-8.634;2023-02-19T07:16:47;101907.88;;;10.45;62.15
61528;BME280;47395;42.032;-8.634;2023-02-19T07:18:48;101912.34;;;10.41;62.62
61528;BME280;47395;42.032;-8.634;2023-02-19T07:20:49;101917.59;;;10.41;62.89
61528;BME280;47395;42.032;-8.634;2023-02-19T07:22:50;101920.28;;;10.40;63.08
61528;BME280;47395;42.032;-8.634;2023-02-19T07:24:51;101916.34;;;10.23;62.69
61528;BME280;47395;42.032;-8.634;2023-02-19T07:26:52;101915.31;;;10.29;63.36
61528;BME280;47395;42.032;-8.634;2023-02-19T07:28:52;101917.66;;;10.40;63.56
61528;BME280;47395;42.032;-8.634;2023-02-19T07:30:59;101926.94;;;10.53;62.89
61528;BME280;47395;42.032;-8.634;2023-02-19T07:33:00;101919.78;;;10.58;62.71
61528;BME280;47395;42.032;-8.634;2023-02-19T07:35:01;101922.25;;;10.65;62.63
61528;BME280;47395;42.032;-8.634;2023-02-19T07:37:02;101932.63;;;10.69;62.45
61528;BME280;47395;42.032;-8.634;2023-02-19T07:39:03;101930.00;;;10.69;62.53
61528;BME280;47395;42.032;-8.634;2023-02-19T07:41:05;101929.03;;;10.72;62.27
61528;BME280;47395;42.032;-8.634;2023-02-19T07:43:06;101926.91;;;10.55;61.99
61528;BME280;47395;42.032;-8.634;2023-02-19T07:45:07;101930.91;;;10.37;62.29
61528;BME280;47395;42.032;-8.634;2023-02-19T07:47:08;101937.16;;;10.32;63.22
61528;BME280;47395;42.032;-8.634;2023-02-19T07:49:09;101937.75;;;10.44;63.32
61528;BME280;47395;42.032;-8.634;2023-02-19T07:51:16;101931.38;;;10.51;63.02
61528;BME280;47395;42.032;-8.634;2023-02-19T07:53:18;101929.34;;;10.61;62.85
61528;BME280;47395;42.032;-8.634;2023-02-19T07:55:19;101935.97;;;10.75;63.08
61528;BME280;47395;42.032;-8.634;2023-02-19T07:57:20;101930.38;;;10.86;62.67
61528;BME280;47395;42.032;-8.634;2023-02-19T07:59:21;101940.56;;;10.98;61.74
61528;BME280;47395;42.032;-8.634;2023-02-19T08:01:23;101941.03;;;11.11;61.39
61528;BME280;47395;42.032;-8.634;2023-02-19T08:03:44;101937.91;;;11.27;61.22
61528;BME280;47395;42.032;-8.634;2023-02-19T08:05:45;101940.03;;;11.42;60.83
61528;BME280;47395;42.032;-8.634;2023-02-19T08:07:47;101943.25;;;11.52;60.65
61528;BME280;47395;42.032;-8.634;2023-02-19T08:09:48;101948.06;;;11.66;60.20
61528;BME280;47395;42.032;-8.634;2023-02-19T08:12:10;101944.00;;;11.83;59.76
61528;BME280;47395;42.032;-8.634;2023-02-19T08:14:40;101947.34;;;11.88;59.30
61528;BME280;47395;42.032;-8.634;2023-02-19T08:16:48;101945.84;;;12.06;59.02
61528;BME280;47395;42.032;-8.634;2023-02-19T08:18:49;101948.06;;;12.19;58.38
61528;BME280;47395;42.032;-8.634;2023-02-19T08:20:50;101956.56;;;12.27;58.23
61528;BME280;47395;42.032;-8.634;2023-02-19T08:22:51;101955.00;;;12.47;57.86
61528;BME280;47395;42.032;-8.634;2023-02-19T08:24:51;101956.94;;;12.65;57.13
61528;BME280;47395;42.032;-8.634;2023-02-19T08:26:52;101954.28;;;12.89;56.78
61528;BME280;47395;42.032;-8.634;2023-02-19T08:28:53;101959.38;;;13.16;56.13
61528;BME280;47395;42.032;-8.634;2023-02-19T08:30:59;101959.06;;;13.47;55.06
61528;BME280;47395;42.032;-8.634;2023-02-19T08:33:00;101965.28;;;13.68;54.44
61528;BME280;47395;42.032;-8.634;2023-02-19T08:35:01;101967.19;;;13.87;54.07
61528;BME280;47395;42.032;-8.634;2023-02-19T08:37:02;101962.84;;;14.05;54.42
61528;BME280;47395;42.032;-8.634;2023-02-19T08:39:03;101961.91;;;14.27;53.43
61528;BME280;47395;42.032;-8.634;2023-02-19T08:41:06;101971.44;;;14.31;53.07
61528;BME280;47395;42.032;-8.634;2023-02-19T08:43:10;101972.09;;;14.76;51.78
61528;BME280;47395;42.032;-8.634;2023-02-19T08:45:11;101969.50;;;16.03;49.15
61528;BME280;47395;42.032;-8.634;2023-02-19T08:47:12;101964.75;;;17.40;45.54
61528;BME280;47395;42.032;-8.634;2023-02-19T08:49:14;101966.09;;;18.67;42.76
61528;BME280;47395;42.032;-8.634;2023-02-19T08:51:15;101962.34;;;19.93;39.48
61528;BME280;47395;42.032;-8.634;2023-02-19T08:53:16;101966.16;;;20.67;37.02
61528;BME280;47395;42.032;-8.634;2023-02-19T08:55:17;101961.47;;;21.32;35.95
61528;BME280;47395;42.032;-8.634;2023-02-19T08:57:18;101963.94;;;21.47;35.68
61528;BME280;47395;42.032;-8.634;2023-02-19T08:59:19;101967.47;;;21.83;34.42
61528;BME280;47395;42.032;-8.634;2023-02-19T09:01:20;101973.59;;;21.85;34.11
61528;BME280;47395;42.032;-8.634;2023-02-19T09:03:20;101983.63;;;21.34;35.29
61528;BME280;47395;42.032;-8.634;2023-02-19T09:05:21;101978.13;;;20.87;36.13
61528;BME280;47395;42.032;-8.634;2023-02-19T09:07:22;101972.03;;;20.08;36.21
61528;BME280;47395;42.032;-8.634;2023-02-19T09:09:23;101978.25;;;19.55;37.84
61528;BME280;47395;42.032;-8.634;2023-02-19T09:11:24;101979.59;;;18.93;38.49
61528;BME280;47395;42.032;-8.634;2023-02-19T09:13:25;101981.78;;;17.99;41.03
61528;BME280;47395;42.032;-8.634;2023-02-19T09:15:25;101989.25;;;17.31;42.99
61528;BME280;47395;42.032;-8.634;2023-02-19T09:17:28;101983.44;;;17.08;44.19
61528;BME280;47395;42.032;-8.634;2023-02-19T09:19:29;101992.94;;;16.80;44.97
61528;BME280;47395;42.032;-8.634;2023-02-19T09:21:30;101984.50;;;16.22;45.85
61528;BME280;47395;42.032;-8.634;2023-02-19T09:23:32;101994.41;;;15.83;46.87
61528;BME280;47395;42.032;-8.634;2023-02-19T09:25:33;101989.63;;;15.54;47.84
61528;BME280;47395;42.032;-8.634;2023-02-19T09:27:34;101977.47;;;15.85;47.60
61528;BME280;47395;42.032;-8.634;2023-02-19T09:29:35;101993.00;;;16.62;46.16
61528;BME280;47395;42.032;-8.634;2023-02-19T09:31:36;101984.06;;;18.92;41.09
61528;BME280;47395;42.032;-8.634;2023-02-19T09:33:41;101975.44;;;20.74;38.45
61528;BME280;47395;42.032;-8.634;2023-02-19T09:35:42;101981.53;;;21.98;35.25
61528;BME280;47395;42.032;-8.634;2023-02-19T09:37:43;101980.09;;;22.51;33.93
61528;BME280;47395;42.032;-8.634;2023-02-19T09:39:44;101979.75;;;22.56;32.93
61528;BME280;47395;42.032;-8.634;2023-02-19T09:41:52;101977.09;;;23.00;32.64
61528;BME280;47395;42.032;-8.634;2023-02-19T09:43:56;101980.47;;;22.35;33.08
61528;BME280;47395;42.032;-8.634;2023-02-19T09:46:03;101993.75;;;21.42;35.03
61528;BME280;47395;42.032;-8.634;2023-02-19T09:48:08;101991.84;;;20.95;36.13
61528;BME280;47395;42.032;-8.634;2023-02-19T09:50:19;101985.94;;;20.40;36.39
61528;BME280;47395;42.032;-8.634;2023-02-19T09:52:30;101988.75;;;19.85;38.35
61528;BME280;47395;42.032;-8.634;2023-02-19T09:54:33;101999.22;;;19.34;39.00
61528;BME280;47395;42.032;-8.634;2023-02-19T09:56:35;101999.44;;;19.31;40.31
61528;BME280;47395;42.032;-8.634;2023-02-19T09:58:49;101988.59;;;20.01;39.34
61528;BME280;47395;42.032;-8.634;2023-02-19T10:00:53;101989.59;;;21.38;35.79
61528;BME280;47395;42.032;-8.634;2023-02-19T10:03:08;101982.41;;;22.56;34.59
61528;BME280;47395;42.032;-8.634;2023-02-19T10:05:12;101976.63;;;22.95;32.64
61528;BME280;47395;42.032;-8.634;2023-02-19T10:07:17;101990.31;;;22.80;32.35
61528;BME280;47395;42.032;-8.634;2023-02-19T10:09:22;101988.03;;;22.53;32.74
61528;BME280;47395;42.032;-8.634;2023-02-19T10:11:25;101988.41;;;22.37;32.91
61528;BME280;47395;42.032;-8.634;2023-02-19T10:13:33;101984.78;;;21.79;34.78
61528;BME280;47395;42.032;-8.634;2023-02-19T10:15:38;101990.97;;;21.44;35.00
61528;BME280;47395;42.032;-8.634;2023-02-19T10:17:42;101990.75;;;21.22;34.93
61528;BME280;47395;42.032;-8.634;2023-02-19T10:19:43;101989.44;;;21.04;36.42
61528;BME280;47395;42.032;-8.634;2023-02-19T10:21:44;101984.34;;;20.74;37.19
61528;BME280;47395;42.032;-8.634;2023-02-19T10:23:49;101979.75;;;20.77;36.52
61528;BME280;47395;42.032;-8.634;2023-02-19T10:25:55;101980.34;;;20.56;37.67
61528;BME280;47395;42.032;-8.634;2023-02-19T10:27:59;101977.00;;;19.87;38.22
61528;BME280;47395;42.032;-8.634;2023-02-19T10:30:00;101969.84;;;19.88;38.92
61528;BME280;47395;42.032;-8.634;2023-02-19T10:32:11;101979.28;;;20.45;38.33
61528;BME280;47395;42.032;-8.634;2023-02-19T10:34:20;101969.66;;;20.30;38.76
61528;BME280;47395;42.032;-8.634;2023-02-19T10:36:31;101962.81;;;21.13;37.42
61528;BME280;47395;42.032;-8.634;2023-02-19T10:38:38;101960.69;;;21.30;37.54
61528;BME280;47395;42.032;-8.634;2023-02-19T10:40:43;101963.13;;;22.05;36.31
61528;BME280;47395;42.032;-8.634;2023-02-19T10:42:47;101957.31;;;23.01;35.17
61528;BME280;47395;42.032;-8.634;2023-02-19T10:44:57;101955.59;;;23.66;33.61
61528;BME280;47395;42.032;-8.634;2023-02-19T10:47:01;101953.97;;;24.37;33.53
61528;BME280;47395;42.032;-8.634;2023-02-19T10:51:38;101955.88;;;25.57;30.58
61528;BME280;47395;42.032;-8.634;2023-02-19T10:53:45;101954.56;;;25.51;30.29